Time;durP1;ratioP1;P1;durP2;ratioP2;P2;SDS_P1;SDS_P2;PMS_P1;PMS_P2;Temp;Humidity;BMP_temperature;BMP_pressure;BME280_temperature;BME280_humidity;BME280_pressure;Samples;Min_cycle;Max_cycle;Signal;HPM_P1;HPM_P2
2023/04/30 00:00:59;;;;;;;18.70;13.33;;;13.20;99.90;;;;;;6119905;23;20416;-82
2023/04/30 00:03:31;;;;;;;14.90;12.83;;;13.30;99.90;;;;;;6096471;23;21155;-80
2023/04/30 00:06:05;;;;;;;15.83;13.27;;;13.20;99.90;;;;;;6094036;23;20413;-82
2023/04/30 00:08:40;;;;;;;15.17;12.30;;;13.20;99.90;;;;;;6096405;23;20436;-81
2023/04/30 00:11:07;;;;;;;12.83;10.90;;;13.30;99.90;;;;;;6099159;23;20448;-83
2023/04/30 00:13:35;;;;;;;16.60;12.67;;;13.20;99.90;;;;;;6097073;23;20828;-82
2023/04/30 00:16:02;;;;;;;13.23;10.97;;;13.20;99.90;;;;;;6096683;23;20420;-82
2023/04/30 00:18:34;;;;;;;10.80;9.43;;;13.20;99.90;;;;;;6097481;23;20511;-82
2023/04/30 00:21:01;;;;;;;11.20;9.60;;;13.10;99.90;;;;;;6097982;23;20424;-82
2023/04/30 00:23:33;;;;;;;11.90;9.20;;;13.10;99.90;;;;;;6096152;23;20401;-82
2023/04/30 00:26:00;;;;;;;10.13;8.70;;;12.90;99.90;;;;;;6095910;23;20484;-83
2023/04/30 00:28:27;;;;;;;9.70;8.70;;;13.00;99.90;;;;;;6096892;23;20428;-83
2023/04/30 00:30:57;;;;;;;10.97;9.23;;;12.90;99.90;;;;;;6097724;23;20448;-82
2023/04/30 00:33:24;;;;;;;10.60;9.50;;;12.90;99.50;;;;;;6096673;23;20437;-83
2023/04/30 00:35:54;;;;;;;9.87;8.80;;;12.90;99.90;;;;;;6096582;23;20484;-82
2023/04/30 00:38:21;;;;;;;12.83;8.60;;;12.80;99.80;;;;;;6095909;23;20417;-84
2023/04/30 00:40:48;;;;;;;10.70;9.10;;;12.90;99.70;;;;;;6095756;23;21020;-81
2023/04/30 00:43:15;;;;;;;11.80;9.73;;;12.80;99.60;;;;;;6098494;23;20423;-82
2023/04/30 00:45:42;;;;;;;12.20;9.53;;;12.80;99.60;;;;;;6096233;23;20906;-82
2023/04/30 00:48:10;;;;;;;10.50;8.70;;;12.70;99.70;;;;;;6097581;23;20412;-83
2023/04/30 00:50:37;;;;;;;10.70;9.10;;;12.60;99.80;;;;;;6096616;23;20440;-83
2023/04/30 00:53:06;;;;;;;11.80;9.53;;;12.60;99.90;;;;;;6098084;23;20530;-81
2023/04/30 00:55:38;;;;;;;11.27;9.27;;;12.70;99.90;;;;;;6097266;23;20424;-83
2023/04/30 00:58:09;;;;;;;9.73;8.70;;;12.70;99.90;;;;;;6118300;23;20454;-83
2023/04/30 01:00:36;;;;;;;10.30;8.93;;;12.60;99.90;;;;;;6099220;23;20412;-81
2023/04/30 01:03:09;;;;;;;11.00;9.07;;;12.60;99.90;;;;;;6119670;23;20435;-81
2023/04/30 01:05:36;;;;;;;9.30;8.37;;;12.60;99.90;;;;;;6119609;23;20885;-81
2023/04/30 01:08:03;;;;;;;10.23;8.60;;;12.60;99.90;;;;;;6120605;23;20411;-82
2023/04/30 01:10:43;;;;;;;11.30;8.27;;;12.50;99.90;;;;;;6118049;23;20459;-80
2023/04/30 01:13:24;;;;;;;11.03;8.30;;;12.80;99.90;;;;;;6098044;23;20397;-83
2023/04/30 01:16:01;;;;;;;9.33;7.13;;;12.90;98.90;;;;;;6119935;23;20401;-82
2023/04/30 01:18:34;;;;;;;8.87;7.57;;;13.00;98.60;;;;;;6121351;23;20828;-82
2023/04/30 01:21:04;;;;;;;10.03;8.17;;;12.70;98.20;;;;;;6098395;23;20478;-82
2023/04/30 01:23:38;;;;;;;10.27;9.27;;;12.80;98.50;;;;;;6098330;23;20416;-82
2023/04/30 01:26:36;;;;;;;9.40;8.00;;;12.90;98.30;;;;;;6097517;23;20416;-82
2023/04/30 01:29:10;;;;;;;7.93;6.80;;;12.80;98.50;;;;;;6125445;23;20429;-82
2023/04/30 01:31:37;;;;;;;8.70;7.63;;;12.80;97.90;;;;;;6119106;23;20448;-82
2023/04/30 01:34:04;;;;;;;7.97;5.40;;;12.80;97.60;;;;;;6100011;23;20475;-81
2023/04/30 01:36:53;;;;;;;7.57;6.70;;;12.50;97.60;;;;;;6097286;23;20404;-82
2023/04/30 01:39:56;;;;;;;8.50;6.77;;;12.60;97.50;;;;;;6099489;23;20428;-82
2023/04/30 01:42:35;;;;;;;7.47;6.40;;;12.50;97.20;;;;;;6096650;23;20408;-81
2023/04/30 01:45:10;;;;;;;7.10;6.23;;;12.70;97.20;;;;;;6099464;23;20435;-83
2023/04/30 01:48:00;;;;;;;6.37;5.73;;;12.40;97.20;;;;;;6099144;23;20408;-81
2023/04/30 01:50:48;;;;;;;7.63;6.23;;;12.30;97.70;;;;;;6121451;23;20491;-82
2023/04/30 01:53:35;;;;;;;6.50;5.83;;;12.20;98.00;;;;;;6098458;23;20389;-83
2023/04/30 01:56:08;;;;;;;6.50;5.80;;;12.10;98.30;;;;;;6099595;23;20440;-82
2023/04/30 01:58:37;;;;;;;6.90;5.73;;;12.10;98.50;;;;;;6121766;23;21227;-82
2023/04/30 02:01:04;;;;;;;9.20;5.97;;;12.00;98.70;;;;;;6122641;23;20456;-82
2023/04/30 02:03:32;;;;;;;7.33;6.60;;;12.00;98.90;;;;;;6097104;23;20424;-81
2023/04/30 02:06:07;;;;;;;5.87;5.27;;;11.90;99.00;;;;;;6119765;23;20431;-82
2023/04/30 02:08:34;;;;;;;6.77;5.43;;;11.90;99.20;;;;;;6122052;23;20488;-82
2023/04/30 02:11:06;;;;;;;7.10;5.80;;;11.90;99.30;;;;;;6120895;23;20954;-82
2023/04/30 02:13:43;;;;;;;8.90;6.40;;;11.90;99.30;;;;;;6120875;23;20392;-82
2023/04/30 02:16:16;;;;;;;6.73;6.13;;;12.00;99.40;;;;;;6123906;23;20417;-82
2023/04/30 02:18:48;;;;;;;6.53;5.83;;;12.20;99.30;;;;;;6100503;23;20489;-81
2023/04/30 02:21:17;;;;;;;6.70;5.70;;;12.10;98.90;;;;;;6104644;23;20420;-82
2023/04/30 02:23:44;;;;;;;6.70;5.33;;;12.00;98.90;;;;;;6123413;23;20405;-83
2023/04/30 02:26:14;;;;;;;7.27;6.57;;;11.90;99.00;;;;;;6098038;23;20451;-82
2023/04/30 02:28:43;;;;;;;6.53;5.80;;;12.00;99.00;;;;;;6099880;23;20429;-84
2023/04/30 02:31:12;;;;;;;7.50;6.00;;;11.90;98.90;;;;;;6127181;23;20512;-82
2023/04/30 02:33:39;;;;;;;6.83;6.20;;;11.90;98.90;;;;;;6131853;23;20423;-80
2023/04/30 02:36:09;;;;;;;6.33;5.73;;;11.90;98.90;;;;;;6133720;23;20405;-82
2023/04/30 02:38:39;;;;;;;9.10;5.70;;;11.90;98.90;;;;;;6131697;23;20483;-79
2023/04/30 02:41:09;;;;;;;7.60;6.67;;;11.90;98.90;;;;;;6146616;23;20440;-81
2023/04/30 02:43:36;;;;;;;7.33;6.63;;;11.90;98.90;;;;;;6121785;23;20643;-82
2023/04/30 02:46:04;;;;;;;8.20;5.73;;;11.90;98.90;;;;;;6114849;23;20409;-81
2023/04/30 02:48:31;;;;;;;8.73;5.50;;;11.90;98.90;;;;;;6111617;23;20429;-83
2023/04/30 02:51:00;;;;;;;9.10;7.10;;;11.80;98.80;;;;;;6130142;23;20441;-80
2023/04/30 02:53:28;;;;;;;8.93;6.30;;;11.80;98.80;;;;;;6133311;23;20441;-82
2023/04/30 02:56:00;;;;;;;6.23;5.63;;;11.80;98.90;;;;;;6132549;23;20412;-81
2023/04/30 02:58:29;;;;;;;5.70;5.20;;;11.80;99.00;;;;;;6108979;23;20420;-82
2023/04/30 03:01:02;;;;;;;7.67;5.90;;;11.80;99.00;;;;;;6101795;23;20408;-81
2023/04/30 03:03:29;;;;;;;8.40;6.47;;;11.80;99.00;;;;;;6099692;23;20396;-83
2023/04/30 03:05:58;;;;;;;9.40;6.30;;;11.80;99.10;;;;;;6098978;23;20427;-83
2023/04/30 03:08:25;;;;;;;7.30;6.07;;;11.80;99.10;;;;;;6097206;23;20415;-84
2023/04/30 03:10:52;;;;;;;7.57;6.60;;;11.90;99.20;;;;;;6099874;23;20527;-83
2023/04/30 03:13:19;;;;;;;7.60;6.57;;;12.20;98.60;;;;;;6103509;23;20396;-81
2023/04/30 03:15:46;;;;;;;6.77;5.97;;;12.20;97.80;;;;;;6110372;23;20409;-81
2023/04/30 03:18:14;;;;;;;6.97;5.87;;;11.90;98.00;;;;;;6101756;23;20417;-82
2023/04/30 03:20:50;;;;;;;6.90;5.50;;;11.80;98.40;;;;;;6096294;23;20421;-82
2023/04/30 03:23:20;;;;;;;7.60;6.80;;;11.80;98.80;;;;;;6097538;23;20472;-82
2023/04/30 03:25:50;;;;;;;7.60;6.33;;;11.60;99.00;;;;;;6073490;23;20397;-83
2023/04/30 03:28:16;;;;;;;7.97;6.20;;;11.60;99.30;;;;;;6076033;23;20408;-82
2023/04/30 03:30:44;;;;;;;6.03;5.43;;;11.60;99.50;;;;;;6104236;23;21050;-81
2023/04/30 03:33:11;;;;;;;7.47;6.63;;;11.50;99.70;;;;;;6098845;23;20413;-82
2023/04/30 03:35:41;;;;;;;6.53;5.80;;;11.60;99.90;;;;;;6096946;23;20409;-82
2023/04/30 03:38:10;;;;;;;9.03;6.97;;;11.50;99.90;;;;;;6100639;23;20404;-83
2023/04/30 03:40:37;;;;;;;7.27;6.47;;;11.50;99.90;;;;;;6098335;23;20440;-83
2023/04/30 03:43:06;;;;;;;8.87;6.63;;;11.60;99.90;;;;;;6097148;23;20400;-83
2023/04/30 03:45:33;;;;;;;7.77;6.63;;;11.80;99.20;;;;;;6097489;23;20475;-82
2023/04/30 03:48:02;;;;;;;7.23;6.47;;;11.70;99.00;;;;;;6098549;23;20397;-84
2023/04/30 03:50:29;;;;;;;7.03;5.73;;;11.60;99.10;;;;;;6097648;23;20443;-83
2023/04/30 03:52:56;;;;;;;7.77;6.63;;;11.50;99.40;;;;;;6098296;23;20395;-82
2023/04/30 03:55:23;;;;;;;7.37;6.27;;;11.40;99.70;;;;;;6096792;23;20440;-83
2023/04/30 03:57:51;;;;;;;6.73;6.03;;;11.40;99.90;;;;;;6093640;23;20411;-82
2023/04/30 04:00:19;;;;;;;6.60;5.90;;;11.50;99.90;;;;;;6125693;23;20440;-83
2023/04/30 04:02:48;;;;;;;9.10;7.03;;;11.40;99.90;;;;;;6127414;23;20468;-82
2023/04/30 04:05:15;;;;;;;7.10;6.17;;;11.30;99.90;;;;;;6127980;23;20502;-79
2023/04/30 04:07:42;;;;;;;8.13;6.73;;;11.30;99.90;;;;;;6101276;23;20439;-81
2023/04/30 04:10:09;;;;;;;7.33;6.17;;;11.30;99.90;;;;;;6126696;23;20436;-82
2023/04/30 04:12:36;;;;;;;8.80;6.80;;;11.30;99.90;;;;;;6125965;23;20440;-82
2023/04/30 04:15:04;;;;;;;6.63;6.03;;;11.30;99.90;;;;;;6126912;23;20527;-81
2023/04/30 04:17:31;;;;;;;7.73;6.90;;;11.30;99.90;;;;;;6128739;23;20482;-83
2023/04/30 04:19:58;;;;;;;6.00;5.50;;;11.40;99.90;;;;;;6100989;23;20424;-83
2023/04/30 04:22:25;;;;;;;7.70;6.50;;;11.30;99.90;;;;;;6127386;23;20410;-82
2023/04/30 04:24:52;;;;;;;9.23;7.23;;;11.30;99.90;;;;;;6132826;23;20729;-81
2023/04/30 04:27:19;;;;;;;7.27;6.57;;;11.30;99.90;;;;;;6137910;23;20484;-80
2023/04/30 04:29:46;;;;;;;7.27;6.57;;;11.30;99.90;;;;;;6132567;23;20510;-83
2023/04/30 04:32:13;;;;;;;7.47;6.57;;;11.20;99.90;;;;;;6126572;23;20440;-84
2023/04/30 04:34:41;;;;;;;7.97;6.60;;;11.20;99.90;;;;;;6126719;23;20404;-82
2023/04/30 04:37:09;;;;;;;8.37;6.53;;;11.20;99.90;;;;;;6127712;23;20451;-83
2023/04/30 04:39:36;;;;;;;8.60;6.83;;;11.10;99.90;;;;;;6131911;23;20439;-83
2023/04/30 04:42:03;;;;;;;6.97;6.27;;;11.30;99.90;;;;;;6130704;23;20464;-82
2023/04/30 04:44:31;;;;;;;6.90;6.27;;;11.30;99.90;;;;;;6106489;23;20732;-83
2023/04/30 04:46:59;;;;;;;7.30;6.33;;;11.20;99.90;;;;;;6132694;23;20419;-84
2023/04/30 04:49:26;;;;;;;6.80;6.03;;;11.30;99.90;;;;;;6118522;23;20416;-83
2023/04/30 04:51:53;;;;;;;7.30;6.60;;;11.30;99.90;;;;;;6151618;23;20450;-83
2023/04/30 04:54:20;;;;;;;7.90;7.10;;;11.30;99.90;;;;;;6151043;23;20423;-82
2023/04/30 04:56:47;;;;;;;7.30;6.60;;;11.40;99.90;;;;;;6126014;23;20427;-82
2023/04/30 04:59:14;;;;;;;6.70;5.90;;;11.40;99.90;;;;;;6123911;23;20495;-82
2023/04/30 05:01:40;;;;;;;8.47;7.57;;;11.30;99.90;;;;;;6138644;23;20416;-82
2023/04/30 05:04:08;;;;;;;9.67;6.27;;;11.40;99.90;;;;;;6124377;23;20439;-82
2023/04/30 05:06:35;;;;;;;8.00;7.20;;;11.50;99.90;;;;;;6128373;23;20408;-83
2023/04/30 05:09:04;;;;;;;8.60;6.73;;;11.50;99.90;;;;;;6127913;23;20424;-83
2023/04/30 05:11:30;;;;;;;10.13;7.70;;;11.50;99.80;;;;;;6127427;23;20443;-82
2023/04/30 05:13:58;;;;;;;10.70;7.27;;;11.50;99.90;;;;;;6102999;23;20443;-83
2023/04/30 05:16:25;;;;;;;10.00;7.60;;;11.40;99.90;;;;;;6103303;23;20466;-82
2023/04/30 05:18:52;;;;;;;7.20;6.50;;;11.70;99.90;;;;;;6127984;23;20427;-82
2023/04/30 05:21:19;;;;;;;10.20;7.93;;;11.60;99.40;;;;;;6131719;23;20427;-83
2023/04/30 05:23:46;;;;;;;8.80;7.20;;;11.50;99.50;;;;;;6128331;23;20443;-81
2023/04/30 05:26:13;;;;;;;9.13;7.10;;;11.50;99.60;;;;;;6150989;23;20427;-81
2023/04/30 05:28:40;;;;;;;8.77;7.00;;;11.50;99.70;;;;;;6143975;23;20436;-80
2023/04/30 05:31:06;;;;;;;7.33;6.47;;;11.50;99.70;;;;;;6139329;23;20439;-82
2023/04/30 05:33:33;;;;;;;6.97;6.27;;;11.50;99.80;;;;;;6115983;23;20388;-80
2023/04/30 05:36:00;;;;;;;8.67;7.20;;;11.50;99.80;;;;;;6138333;23;20483;-83
2023/04/30 05:38:27;;;;;;;10.20;7.23;;;11.60;99.90;;;;;;6141827;23;20445;-83
2023/04/30 05:40:53;;;;;;;8.10;6.80;;;11.80;99.30;;;;;;6116149;23;20569;-81
2023/04/30 05:43:20;;;;;;;8.20;7.07;;;11.70;99.10;;;;;;6117436;23;20476;-81
2023/04/30 05:45:47;;;;;;;8.17;6.57;;;11.90;98.70;;;;;;6136756;23;20450;-80
2023/04/30 05:48:14;;;;;;;8.43;7.07;;;12.20;98.50;;;;;;6139786;23;20395;-82
2023/04/30 05:50:41;;;;;;;8.50;7.70;;;12.40;97.60;;;;;;6130123;23;20414;-82
2023/04/30 05:53:08;;;;;;;8.37;7.10;;;12.40;97.30;;;;;;6102335;23;20513;-80
2023/04/30 05:55:35;;;;;;;10.83;7.83;;;12.30;97.00;;;;;;6127755;23;20408;-80
2023/04/30 05:58:02;;;;;;;9.27;7.40;;;12.20;97.20;;;;;;6125122;23;20426;-83
2023/04/30 06:00:28;;;;;;;8.30;6.70;;;12.20;97.40;;;;;;6101488;23;20431;-82
2023/04/30 06:02:55;;;;;;;10.47;7.87;;;12.10;97.50;;;;;;6101194;23;20451;-82
2023/04/30 06:05:22;;;;;;;8.07;6.63;;;12.20;97.50;;;;;;6127819;23;20446;-81
2023/04/30 06:07:49;;;;;;;9.00;6.53;;;12.10;97.60;;;;;;6101681;23;20416;-82
2023/04/30 06:10:15;;;;;;;9.57;7.67;;;12.20;97.90;;;;;;6126968;23;21063;-81
2023/04/30 06:12:42;;;;;;;13.40;7.53;;;12.30;97.80;;;;;;6127638;23;20835;-82
2023/04/30 06:15:09;;;;;;;12.10;7.60;;;12.60;97.70;;;;;;6128352;23;20404;-81
2023/04/30 06:17:36;;;;;;;8.30;7.40;;;12.70;97.70;;;;;;6128165;23;20487;-82
2023/04/30 06:20:05;;;;;;;8.07;6.63;;;14.90;98.20;;;;;;6126049;23;20474;-81
2023/04/30 06:22:33;;;;;;;7.50;6.47;;;18.80;90.70;;;;;;6127448;23;20420;-81
2023/04/30 06:25:00;;;;;;;8.50;7.60;;;21.50;77.70;;;;;;6125989;23;20439;-82
2023/04/30 06:27:27;;;;;;;7.63;6.87;;;23.60;66.80;;;;;;6125503;23;20608;-83
2023/04/30 06:29:54;;;;;;;7.53;6.83;;;24.70;60.00;;;;;;6135073;23;20438;-82
2023/04/30 06:32:21;;;;;;;10.53;8.57;;;24.50;57.50;;;;;;6129683;23;20440;-83
2023/04/30 06:34:48;;;;;;;7.43;6.43;;;22.50;57.30;;;;;;6143903;23;20408;-82
2023/04/30 06:37:14;;;;;;;8.37;7.20;;;20.20;61.00;;;;;;6126241;23;20460;-81
2023/04/30 06:39:41;;;;;;;9.07;8.17;;;18.00;66.70;;;;;;6150314;23;20426;-82
2023/04/30 06:42:08;;;;;;;9.00;8.10;;;16.70;73.90;;;;;;6132405;23;20925;-83
2023/04/30 06:44:36;;;;;;;9.80;8.27;;;15.70;79.20;;;;;;6103788;23;20478;-83
2023/04/30 06:47:03;;;;;;;10.00;7.80;;;15.10;84.20;;;;;;6127753;23;20408;-81
2023/04/30 06:49:30;;;;;;;9.70;8.67;;;14.80;88.50;;;;;;6127542;23;21130;-81
2023/04/30 06:51:57;;;;;;;8.80;7.80;;;14.80;90.20;;;;;;6127413;23;20447;-83
2023/04/30 06:54:26;;;;;;;9.97;7.80;;;14.50;90.60;;;;;;6128782;23;20418;-82
2023/04/30 06:56:53;;;;;;;10.63;9.53;;;14.20;90.80;;;;;;6127931;23;20429;-83
2023/04/30 06:59:20;;;;;;;8.60;7.63;;;14.10;91.70;;;;;;6128617;23;20439;-83
2023/04/30 07:01:47;;;;;;;9.37;7.40;;;14.20;91.80;;;;;;6128743;23;20481;-82
2023/04/30 07:04:14;;;;;;;9.13;7.13;;;14.60;91.70;;;;;;6130288;23;20409;-82
2023/04/30 07:06:41;;;;;;;9.43;7.20;;;14.20;91.60;;;;;;6128883;23;20416;-83
2023/04/30 07:09:14;;;;;;;9.80;8.10;;;14.30;92.30;;;;;;6130406;23;20430;-82
2023/04/30 07:11:43;;;;;;;7.47;6.67;;;15.30;91.00;;;;;;6130277;23;20463;-83
2023/04/30 07:14:16;;;;;;;8.00;6.97;;;15.50;90.40;;;;;;6109730;23;20408;-82
2023/04/30 07:17:02;;;;;;;8.00;6.30;;;15.80;88.80;;;;;;6135767;23;20400;-82
2023/04/30 07:19:48;;;;;;;9.57;7.10;;;16.50;87.50;;;;;;6151184;23;20474;-82
2023/04/30 07:22:23;;;;;;;9.40;6.70;;;18.70;80.70;;;;;;6151745;23;20434;-82
2023/04/30 07:24:50;;;;;;;7.13;6.53;;;21.30;71.60;;;;;;6151531;23;20439;-82
2023/04/30 07:27:21;;;;;;;7.90;7.10;;;23.30;62.40;;;;;;6127519;23;20431;-82
2023/04/30 07:29:56;;;;;;;7.50;6.80;;;24.30;58.00;;;;;;6152454;23;20435;-82
2023/04/30 07:32:47;;;;;;;8.37;7.57;;;26.00;55.20;;;;;;6125637;23;20451;-83
2023/04/30 07:35:20;;;;;;;6.40;5.80;;;27.40;51.20;;;;;;6151900;23;20411;-82
2023/04/30 07:37:53;;;;;;;7.97;7.20;;;27.70;49.00;;;;;;6151482;23;20400;-81
2023/04/30 07:40:27;;;;;;;6.70;6.10;;;27.70;47.90;;;;;;6149222;23;20428;-83
2023/04/30 07:43:00;;;;;;;7.43;6.73;;;28.50;47.10;;;;;;6149880;23;20403;-82
2023/04/30 07:45:38;;;;;;;8.30;7.50;;;28.70;45.80;;;;;;6148061;23;20786;-82
2023/04/30 07:48:07;;;;;;;7.30;6.60;;;29.10;44.30;;;;;;6147874;23;20376;-84
2023/04/30 07:50:45;;;;;;;8.07;7.27;;;29.40;44.10;;;;;;6123317;23;20520;-82
2023/04/30 07:53:22;;;;;;;7.60;6.93;;;29.60;42.60;;;;;;6149093;23;20519;-81
2023/04/30 07:55:55;;;;;;;7.03;6.43;;;29.70;42.30;;;;;;6134193;23;20411;-83
2023/04/30 07:58:24;;;;;;;7.20;6.50;;;29.40;41.90;;;;;;6107818;23;20429;-83
2023/04/30 08:00:53;;;;;;;6.40;5.90;;;30.30;40.50;;;;;;6104834;23;20412;-82
2023/04/30 08:03:22;;;;;;;7.23;6.63;;;29.60;40.70;;;;;;6108714;23;20420;-83
2023/04/30 08:05:54;;;;;;;7.37;6.67;;;30.10;40.10;;;;;;6109088;23;20799;-83
2023/04/30 08:08:23;;;;;;;7.30;6.60;;;30.10;40.30;;;;;;6113006;23;20422;-82
2023/04/30 08:10:58;;;;;;;7.37;6.70;;;30.50;39.20;;;;;;6121325;23;20396;-83
2023/04/30 08:13:25;;;;;;;7.10;6.43;;;30.50;38.80;;;;;;6116379;23;20457;-81
2023/04/30 08:15:58;;;;;;;6.80;6.20;;;29.60;39.60;;;;;;6087238;23;20420;-82
2023/04/30 08:18:32;;;;;;;6.73;6.03;;;30.20;39.00;;;;;;6109261;23;20424;-83
2023/04/30 08:21:05;;;;;;;7.30;6.60;;;30.40;38.70;;;;;;6109599;23;20925;-81
2023/04/30 08:23:38;;;;;;;7.27;6.57;;;30.60;38.30;;;;;;6084704;23;20436;-83
2023/04/30 08:26:10;;;;;;;6.50;5.90;;;30.70;38.30;;;;;;6109147;23;20417;-82
2023/04/30 08:28:45;;;;;;;6.30;5.70;;;31.00;37.50;;;;;;6108045;23;20425;-82
2023/04/30 08:31:26;;;;;;;7.20;6.60;;;31.30;36.80;;;;;;6107020;23;20409;-83
2023/04/30 08:33:56;;;;;;;7.43;6.00;;;31.00;36.90;;;;;;6084668;23;20448;-83
2023/04/30 08:36:49;;;;;;;6.53;5.93;;;31.10;36.40;;;;;;6078299;23;20890;-84
2023/04/30 08:39:30;;;;;;;6.30;5.80;;;30.30;36.90;;;;;;6107656;23;20460;-84
2023/04/30 08:42:10;;;;;;;6.37;5.80;;;30.80;36.40;;;;;;6083431;23;20385;-83
2023/04/30 08:44:52;;;;;;;7.30;6.60;;;30.20;36.50;;;;;;6100579;23;20488;-84
2023/04/30 08:47:24;;;;;;;7.67;5.80;;;30.80;37.30;;;;;;6075870;23;20393;-84
2023/04/30 08:50:03;;;;;;;6.57;6.07;;;30.40;37.20;;;;;;6098168;23;20583;-84
2023/04/30 08:52:40;;;;;;;6.57;6.07;;;30.00;37.90;;;;;;6099796;23;21261;-84
2023/04/30 08:55:25;;;;;;;7.07;6.43;;;29.90;37.30;;;;;;6079266;23;20444;-83
2023/04/30 08:57:58;;;;;;;5.27;4.87;;;31.00;36.70;;;;;;6119970;23;20428;-83
2023/04/30 09:00:40;;;;;;;6.10;5.50;;;30.10;36.50;;;;;;6122336;23;20433;-84
2023/04/30 09:03:20;;;;;;;5.00;4.60;;;30.70;36.30;;;;;;6096967;23;20448;-84
2023/04/30 09:05:48;;;;;;;4.67;4.30;;;31.40;35.40;;;;;;6096161;23;20492;-83
2023/04/30 09:08:45;;;;;;;5.63;5.13;;;31.60;33.90;;;;;;6096768;23;20431;-83
2023/04/30 09:11:37;;;;;;;4.87;4.47;;;32.70;33.10;;;;;;6097787;23;20420;-83
2023/04/30 09:14:28;;;;;;;3.83;3.63;;;31.40;32.80;;;;;;6116835;23;20413;-83
2023/04/30 09:17:23;;;;;;;3.50;3.30;;;29.40;34.20;;;;;;6118796;23;20516;-83
2023/04/30 09:20:07;;;;;;;3.80;3.50;;;29.00;35.30;;;;;;6121722;23;20492;-82
2023/04/30 09:23:19;;;;;;;3.53;3.27;;;30.10;35.20;;;;;;6131390;23;20417;-83
2023/04/30 09:25:52;;;;;;;4.10;3.80;;;30.60;33.50;;;;;;6100400;23;20428;-83
2023/04/30 09:28:28;;;;;;;3.23;3.03;;;30.30;34.00;;;;;;6124620;23;20447;-83
2023/04/30 09:31:05;;;;;;;3.40;3.10;;;30.80;33.60;;;;;;6123573;23;20420;-82
2023/04/30 09:33:53;;;;;;;3.83;3.53;;;30.40;33.80;;;;;;6123583;23;20472;-81
2023/04/30 09:36:23;;;;;;;3.20;3.00;;;29.60;34.10;;;;;;6131845;23;20400;-83
2023/04/30 09:39:06;;;;;;;3.53;3.23;;;29.00;34.60;;;;;;6128928;23;20460;-83
2023/04/30 09:41:45;;;;;;;3.20;2.90;;;30.90;34.00;;;;;;6126301;23;20382;-81
2023/04/30 09:44:28;;;;;;;3.17;2.87;;;31.00;32.60;;;;;;6099666;23;20412;-82
2023/04/30 09:47:18;;;;;;;2.80;2.60;;;30.00;33.70;;;;;;6120457;23;20796;-82
2023/04/30 09:50:01;;;;;;;2.70;2.50;;;30.20;33.70;;;;;;6125370;23;20436;-83
2023/04/30 09:53:04;;;;;;;2.37;2.27;;;29.70;34.10;;;;;;6125606;23;20455;-83
2023/04/30 09:55:45;;;;;;;3.37;2.33;;;29.40;34.00;;;;;;6121168;23;20420;-83
2023/04/30 09:58:22;;;;;;;2.40;2.23;;;30.00;33.30;;;;;;6103169;23;20425;-84
2023/04/30 10:00:53;;;;;;;2.43;2.23;;;28.70;34.10;;;;;;6105244;23;20878;-84
2023/04/30 10:03:23;;;;;;;2.13;2.00;;;27.90;35.60;;;;;;6102614;23;20448;-83
2023/04/30 10:06:18;;;;;;;3.80;2.63;;;29.40;34.70;;;;;;6102977;23;20416;-84
2023/04/30 10:09:08;;;;;;;2.40;2.20;;;28.70;35.10;;;;;;6079739;23;20444;-83
2023/04/30 10:11:52;;;;;;;1.70;1.60;;;27.70;36.40;;;;;;6104133;23;20455;-83
2023/04/30 10:14:30;;;;;;;1.70;1.60;;;29.30;34.70;;;;;;6103648;23;20471;-83
2023/04/30 10:17:20;;;;;;;1.70;1.60;;;29.60;34.30;;;;;;6101229;23;20426;-84
2023/04/30 10:19:53;;;;;;;1.73;1.63;;;29.70;33.50;;;;;;6101586;23;20459;-83
2023/04/30 10:22:29;;;;;;;1.60;1.47;;;29.00;34.60;;;;;;6078983;23;20447;-82
2023/04/30 10:25:10;;;;;;;1.33;1.23;;;29.40;34.40;;;;;;6102687;23;20415;-81
2023/04/30 10:27:39;;;;;;;1.20;1.10;;;28.90;34.90;;;;;;6102105;23;20443;-82
2023/04/30 10:30:20;;;;;;;1.50;1.40;;;29.10;34.30;;;;;;6103206;23;20501;-83
2023/04/30 10:33:31;;;;;;;1.80;1.70;;;28.90;34.60;;;;;;6115893;23;20437;-84
2023/04/30 10:36:33;;;;;;;1.37;1.27;;;28.80;34.60;;;;;;6078396;23;20404;-82
2023/04/30 10:39:13;;;;;;;0.80;0.80;;;29.20;35.10;;;;;;6090883;23;20440;-82
2023/04/30 10:42:02;;;;;;;1.10;1.00;;;29.10;33.20;;;;;;6077385;23;21193;-83
2023/04/30 10:44:37;;;;;;;1.00;0.90;;;28.50;35.10;;;;;;6078776;23;20420;-84
2023/04/30 10:47:14;;;;;;;1.23;1.13;;;29.40;34.70;;;;;;6079345;23;20401;-83
2023/04/30 10:49:48;;;;;;;1.10;1.00;;;29.30;33.40;;;;;;6102550;23;20803;-82
2023/04/30 10:52:33;;;;;;;0.90;0.90;;;27.80;34.90;;;;;;6105004;23;20476;-82
2023/04/30 10:55:10;;;;;;;0.83;0.83;;;27.10;36.20;;;;;;6108418;23;20937;-82
2023/04/30 10:57:42;;;;;;;1.43;1.33;;;27.00;37.30;;;;;;6135668;23;20417;-82
2023/04/30 11:00:25;;;;;;;1.40;1.30;;;27.00;38.00;;;;;;6145494;23;20448;-82
2023/04/30 11:03:02;;;;;;;2.30;1.50;;;26.70;37.20;;;;;;6112349;23;20439;-83
2023/04/30 11:05:51;;;;;;;1.20;1.10;;;26.00;38.40;;;;;;6134163;23;20416;-82
2023/04/30 11:11:46;;;;;;;1.23;1.03;;;26.60;38.20;;;;;;6100515;23;20413;-83
2023/04/30 11:14:24;;;;;;;2.50;1.00;;;26.90;38.40;;;;;;6115075;23;20500;-83
2023/04/30 11:17:02;;;;;;;1.10;1.10;;;26.90;37.50;;;;;;6135358;23;20488;-83
2023/04/30 11:19:34;;;;;;;1.30;1.07;;;27.20;36.50;;;;;;6131842;23;20463;-84
2023/04/30 11:22:28;;;;;;;1.10;1.00;;;26.10;37.40;;;;;;6108357;23;20400;-84
2023/04/30 11:25:33;;;;;;;0.90;0.90;;;26.20;38.40;;;;;;6128281;23;20436;-82
2023/04/30 11:28:22;;;;;;;1.23;0.70;;;26.00;38.10;;;;;;6090835;23;20417;-82
2023/04/30 11:31:03;;;;;;;1.03;1.00;;;26.60;38.20;;;;;;6129052;23;20405;-84
2023/04/30 11:33:42;;;;;;;0.90;0.87;;;27.00;37.50;;;;;;6106698;23;20451;-84
2023/04/30 11:36:32;;;;;;;0.90;0.90;;;26.60;38.10;;;;;;6124231;23;20413;-83
2023/04/30 11:39:09;;;;;;;0.90;0.90;;;26.00;38.20;;;;;;6128459;23;20470;-83
2023/04/30 11:41:43;;;;;;;1.00;1.00;;;25.40;38.90;;;;;;6106263;23;20408;-82
2023/04/30 11:44:42;;;;;;;0.80;0.80;;;25.20;39.30;;;;;;6104448;23;20413;-83
2023/04/30 11:47:37;;;;;;;1.53;1.20;;;25.20;39.20;;;;;;6109722;23;20434;-83
2023/04/30 11:50:12;;;;;;;0.70;0.70;;;24.90;40.10;;;;;;6109360;23;20476;-82
2023/04/30 11:52:49;;;;;;;1.00;0.90;;;24.60;40.60;;;;;;6109254;23;20456;-82
2023/04/30 11:55:25;;;;;;;2.47;1.03;;;24.40;40.70;;;;;;6127894;23;20416;-85
2023/04/30 11:57:59;;;;;;;0.70;0.70;;;24.50;40.90;;;;;;6128706;23;20528;-83
2023/04/30 12:00:30;;;;;;;1.37;1.27;;;24.80;39.70;;;;;;6104956;23;20515;-82
2023/04/30 12:03:03;;;;;;;0.80;0.80;;;24.20;40.20;;;;;;6129119;23;20423;-83
2023/04/30 12:05:30;;;;;;;1.00;0.80;;;24.30;40.60;;;;;;6104215;23;20437;-83
2023/04/30 12:08:10;;;;;;;0.53;0.53;;;24.30;40.80;;;;;;6102181;23;20921;-82
2023/04/30 12:10:40;;;;;;;0.60;0.60;;;24.50;41.40;;;;;;6128035;23;20404;-83
2023/04/30 12:13:17;;;;;;;0.80;0.80;;;25.50;39.70;;;;;;6104033;23;20467;-85
2023/04/30 12:16:02;;;;;;;0.60;0.60;;;25.20;38.40;;;;;;6128493;23;20435;-83
2023/04/30 12:18:35;;;;;;;1.53;1.43;;;25.00;38.70;;;;;;6127082;23;20494;-83
2023/04/30 12:21:11;;;;;;;0.97;0.80;;;25.30;37.80;;;;;;6105662;23;20742;-82
2023/04/30 12:23:58;;;;;;;0.60;0.60;;;25.20;38.40;;;;;;6105427;23;20422;-81
2023/04/30 12:26:52;;;;;;;0.87;0.60;;;26.10;36.60;;;;;;6128498;23;20421;-84
2023/04/30 12:29:33;;;;;;;0.80;0.60;;;25.70;36.40;;;;;;6127741;23;20528;-84
2023/04/30 12:32:04;;;;;;;0.60;0.60;;;25.00;37.80;;;;;;6129297;23;20475;-82
2023/04/30 12:34:37;;;;;;;1.00;0.90;;;25.40;38.90;;;;;;6109922;23;20440;-83
2023/04/30 12:37:11;;;;;;;0.70;0.70;;;25.20;38.80;;;;;;6108355;23;20401;-81
2023/04/30 12:39:39;;;;;;;0.57;0.57;;;25.40;38.90;;;;;;6109884;23;20425;-83
2023/04/30 12:42:22;;;;;;;1.63;0.57;;;25.50;37.50;;;;;;6114767;23;20423;-84
2023/04/30 12:44:54;;;;;;;0.40;0.40;;;25.30;37.50;;;;;;6145940;23;20404;-82
2023/04/30 12:47:31;;;;;;;0.70;0.50;;;25.20;36.90;;;;;;6145157;23;20393;-82
2023/04/30 12:50:15;;;;;;;0.50;0.50;;;25.20;37.50;;;;;;6144270;23;20444;-83
2023/04/30 12:53:04;;;;;;;0.60;0.60;;;25.90;37.50;;;;;;6141059;23;20464;-83
2023/04/30 12:55:41;;;;;;;0.97;0.90;;;25.70;36.40;;;;;;6118154;23;20452;-81
2023/04/30 12:58:18;;;;;;;0.50;0.50;;;25.20;37.30;;;;;;6137638;23;20463;-83
2023/04/30 13:00:49;;;;;;;0.87;0.70;;;25.40;37.50;;;;;;6110068;23;20431;-83
2023/04/30 13:03:22;;;;;;;1.00;0.60;;;25.30;38.00;;;;;;6102502;23;20532;-83
2023/04/30 13:05:51;;;;;;;1.27;0.80;;;25.10;38.70;;;;;;6101176;23;20433;-82
2023/04/30 13:08:25;;;;;;;0.57;0.57;;;24.50;39.00;;;;;;6078808;23;20420;-83
2023/04/30 13:11:06;;;;;;;0.70;0.57;;;24.20;39.10;;;;;;6105189;23;20408;-83
2023/04/30 13:13:35;;;;;;;0.50;0.50;;;24.40;39.00;;;;;;6126453;23;20448;-83
2023/04/30 13:16:11;;;;;;;0.60;0.50;;;24.50;39.20;;;;;;6125091;23;20412;-83
2023/04/30 13:18:45;;;;;;;0.50;0.50;;;24.50;38.40;;;;;;6102879;23;20847;-82
2023/04/30 13:21:26;;;;;;;0.70;0.70;;;24.70;36.70;;;;;;6101253;23;20404;-81